sensor_id;sensor_type;location;lat;lon;timestamp;P1;durP1;ratioP1;P2;durP2;ratioP2
57113;SDS011;42994;51.606;9.988;2022-09-03T00:01:43;1.73;;;0.90;;
57113;SDS011;42994;51.606;9.988;2022-09-03T00:04:16;2.10;;;0.90;;
57113;SDS011;42994;51.606;9.988;2022-09-03T00:06:48;2.00;;;0.80;;
57113;SDS011;42994;51.606;9.988;2022-09-03T00:09:22;2.13;;;0.83;;
57113;SDS011;42994;51.606;9.988;2022-09-03T00:11:57;3.40;;;0.82;;
57113;SDS011;42994;51.606;9.988;2022-09-03T00:14:33;2.53;;;0.80;;
57113;SDS011;42994;51.606;9.988;2022-09-03T00:17:04;2.80;;;0.98;;
57113;SDS011;42994;51.606;9.988;2022-09-03T00:19:36;5.18;;;1.00;;
57113;SDS011;42994;51.606;9.988;2022-09-03T00:22:11;1.33;;;0.80;;
57113;SDS011;42994;51.606;9.988;2022-09-03T00:24:42;1.50;;;0.90;;
57113;SDS011;42994;51.606;9.988;2022-09-03T00:27:13;2.28;;;0.90;;
57113;SDS011;42994;51.606;9.988;2022-09-03T00:29:45;2.50;;;0.80;;
57113;SDS011;42994;51.606;9.988;2022-09-03T00:32:17;2.33;;;0.82;;
57113;SDS011;42994;51.606;9.988;2022-09-03T00:34:49;4.30;;;0.85;;
57113;SDS011;42994;51.606;9.988;2022-09-03T00:37:21;3.58;;;0.95;;
57113;SDS011;42994;51.606;9.988;2022-09-03T00:39:47;4.38;;;0.90;;
57113;SDS011;42994;51.606;9.988;2022-09-03T00:42:28;3.38;;;0.80;;
57113;SDS011;42994;51.606;9.988;2022-09-03T00:47:42;2.78;;;0.88;;
57113;SDS011;42994;51.606;9.988;2022-09-03T00:50:19;2.50;;;0.90;;
57113;SDS011;42994;51.606;9.988;2022-09-03T00:52:59;3.13;;;1.00;;
57113;SDS011;42994;51.606;9.988;2022-09-03T00:55:35;2.10;;;0.90;;
57113;SDS011;42994;51.606;9.988;2022-09-03T00:58:20;2.72;;;0.80;;
57113;SDS011;42994;51.606;9.988;2022-09-03T01:01:01;2.83;;;0.90;;
57113;SDS011;42994;51.606;9.988;2022-09-03T01:03:38;2.90;;;0.87;;
57113;SDS011;42994;51.606;9.988;2022-09-03T01:06:16;1.60;;;0.90;;
57113;SDS011;42994;51.606;9.988;2022-09-03T01:11:38;2.25;;;0.90;;
57113;SDS011;42994;51.606;9.988;2022-09-03T01:14:17;2.58;;;1.00;;
57113;SDS011;42994;51.606;9.988;2022-09-03T01:16:54;3.67;;;1.20;;
57113;SDS011;42994;51.606;9.988;2022-09-03T01:22:34;4.25;;;1.00;;
57113;SDS011;42994;51.606;9.988;2022-09-03T01:25:25;3.60;;;1.00;;
57113;SDS011;42994;51.606;9.988;2022-09-03T01:28:10;3.97;;;1.00;;
57113;SDS011;42994;51.606;9.988;2022-09-03T01:30:50;3.25;;;0.90;;
57113;SDS011;42994;51.606;9.988;2022-09-03T01:33:24;4.07;;;1.00;;
57113;SDS011;42994;51.606;9.988;2022-09-03T01:35:59;1.53;;;0.97;;
57113;SDS011;42994;51.606;9.988;2022-09-03T01:38:36;2.78;;;0.90;;
57113;SDS011;42994;51.606;9.988;2022-09-03T01:41:10;3.80;;;1.30;;
57113;SDS011;42994;51.606;9.988;2022-09-03T01:44:07;4.18;;;0.95;;
57113;SDS011;42994;51.606;9.988;2022-09-03T01:46:45;2.15;;;0.80;;
57113;SDS011;42994;51.606;9.988;2022-09-03T01:49:18;2.60;;;1.02;;
57113;SDS011;42994;51.606;9.988;2022-09-03T01:51:59;2.60;;;0.98;;
57113;SDS011;42994;51.606;9.988;2022-09-03T01:54:36;3.13;;;0.90;;
57113;SDS011;42994;51.606;9.988;2022-09-03T01:57:22;2.80;;;0.90;;
57113;SDS011;42994;51.606;9.988;2022-09-03T02:00:03;4.95;;;1.20;;
57113;SDS011;42994;51.606;9.988;2022-09-03T02:02:39;1.90;;;0.90;;
57113;SDS011;42994;51.606;9.988;2022-09-03T02:05:11;3.40;;;1.10;;
57113;SDS011;42994;51.606;9.988;2022-09-03T02:07:41;3.60;;;0.90;;
57113;SDS011;42994;51.606;9.988;2022-09-03T02:10:12;3.78;;;0.90;;
57113;SDS011;42994;51.606;9.988;2022-09-03T02:12:40;3.83;;;0.90;;
57113;SDS011;42994;51.606;9.988;2022-09-03T02:15:13;2.40;;;0.80;;
57113;SDS011;42994;51.606;9.988;2022-09-03T02:17:44;2.55;;;0.90;;
57113;SDS011;42994;51.606;9.988;2022-09-03T02:20:15;1.23;;;0.90;;
57113;SDS011;42994;51.606;9.988;2022-09-03T02:22:45;3.65;;;0.80;;
57113;SDS011;42994;51.606;9.988;2022-09-03T02:25:13;3.60;;;0.85;;
57113;SDS011;42994;51.606;9.988;2022-09-03T02:27:40;2.15;;;1.00;;
57113;SDS011;42994;51.606;9.988;2022-09-03T02:30:08;1.80;;;0.90;;
57113;SDS011;42994;51.606;9.988;2022-09-03T02:32:37;4.20;;;1.20;;
57113;SDS011;42994;51.606;9.988;2022-09-03T02:35:05;2.10;;;1.00;;
57113;SDS011;42994;51.606;9.988;2022-09-03T02:37:32;1.50;;;1.00;;
57113;SDS011;42994;51.606;9.988;2022-09-03T02:39:59;2.95;;;1.13;;
57113;SDS011;42994;51.606;9.988;2022-09-03T02:42:26;1.20;;;1.10;;
57113;SDS011;42994;51.606;9.988;2022-09-03T02:44:54;2.63;;;1.17;;
57113;SDS011;42994;51.606;9.988;2022-09-03T02:47:27;3.90;;;1.10;;
57113;SDS011;42994;51.606;9.988;2022-09-03T02:49:58;1.20;;;0.75;;
57113;SDS011;42994;51.606;9.988;2022-09-03T02:52:25;1.02;;;0.93;;
57113;SDS011;42994;51.606;9.988;2022-09-03T02:54:51;2.78;;;1.33;;
57113;SDS011;42994;51.606;9.988;2022-09-03T02:57:18;2.47;;;1.17;;
57113;SDS011;42994;51.606;9.988;2022-09-03T02:59:45;1.48;;;1.13;;
57113;SDS011;42994;51.606;9.988;2022-09-03T03:02:12;4.10;;;1.10;;
57113;SDS011;42994;51.606;9.988;2022-09-03T03:04:39;2.80;;;1.10;;
57113;SDS011;42994;51.606;9.988;2022-09-03T03:07:07;2.53;;;1.00;;
57113;SDS011;42994;51.606;9.988;2022-09-03T03:09:34;2.03;;;1.10;;
57113;SDS011;42994;51.606;9.988;2022-09-03T03:12:01;2.40;;;1.00;;
57113;SDS011;42994;51.606;9.988;2022-09-03T03:14:28;3.55;;;1.30;;
57113;SDS011;42994;51.606;9.988;2022-09-03T03:16:54;3.00;;;1.20;;
57113;SDS011;42994;51.606;9.988;2022-09-03T03:19:21;2.50;;;0.90;;
57113;SDS011;42994;51.606;9.988;2022-09-03T03:21:48;3.90;;;1.02;;
57113;SDS011;42994;51.606;9.988;2022-09-03T03:24:16;2.80;;;1.20;;
57113;SDS011;42994;51.606;9.988;2022-09-03T03:26:42;4.03;;;1.17;;
57113;SDS011;42994;51.606;9.988;2022-09-03T03:29:13;2.33;;;1.10;;
57113;SDS011;42994;51.606;9.988;2022-09-03T03:31:41;2.42;;;1.15;;
57113;SDS011;42994;51.606;9.988;2022-09-03T03:34:08;1.75;;;1.05;;
57113;SDS011;42994;51.606;9.988;2022-09-03T03:36:35;3.33;;;1.17;;
57113;SDS011;42994;51.606;9.988;2022-09-03T03:39:01;2.67;;;1.30;;
57113;SDS011;42994;51.606;9.988;2022-09-03T03:41:30;1.88;;;1.17;;
57113;SDS011;42994;51.606;9.988;2022-09-03T03:43:58;2.73;;;1.10;;
57113;SDS011;42994;51.606;9.988;2022-09-03T03:46:28;1.65;;;1.00;;
57113;SDS011;42994;51.606;9.988;2022-09-03T03:48:56;3.38;;;1.13;;
57113;SDS011;42994;51.606;9.988;2022-09-03T03:51:23;1.83;;;1.10;;
57113;SDS011;42994;51.606;9.988;2022-09-03T03:53:52;2.72;;;1.20;;
57113;SDS011;42994;51.606;9.988;2022-09-03T03:56:19;4.78;;;1.15;;
57113;SDS011;42994;51.606;9.988;2022-09-03T03:58:47;5.57;;;1.23;;
57113;SDS011;42994;51.606;9.988;2022-09-03T04:01:15;1.65;;;1.23;;
57113;SDS011;42994;51.606;9.988;2022-09-03T04:03:43;5.78;;;1.20;;
57113;SDS011;42994;51.606;9.988;2022-09-03T04:06:11;2.95;;;1.05;;
57113;SDS011;42994;51.606;9.988;2022-09-03T04:08:40;3.67;;;1.17;;
57113;SDS011;42994;51.606;9.988;2022-09-03T04:11:08;5.18;;;1.17;;
57113;SDS011;42994;51.606;9.988;2022-09-03T04:13:36;5.15;;;1.30;;
57113;SDS011;42994;51.606;9.988;2022-09-03T04:16:06;4.55;;;1.20;;
57113;SDS011;42994;51.606;9.988;2022-09-03T04:18:34;4.35;;;1.20;;
57113;SDS011;42994;51.606;9.988;2022-09-03T04:21:02;5.30;;;1.10;;
57113;SDS011;42994;51.606;9.988;2022-09-03T04:23:31;1.65;;;1.10;;
57113;SDS011;42994;51.606;9.988;2022-09-03T04:25:58;3.35;;;1.50;;
57113;SDS011;42994;51.606;9.988;2022-09-03T04:28:26;2.85;;;1.25;;
57113;SDS011;42994;51.606;9.988;2022-09-03T04:30:53;3.63;;;1.30;;
57113;SDS011;42994;51.606;9.988;2022-09-03T04:33:23;3.20;;;1.30;;
57113;SDS011;42994;51.606;9.988;2022-09-03T04:35:50;4.73;;;1.30;;
57113;SDS011;42994;51.606;9.988;2022-09-03T04:38:16;2.20;;;1.20;;
57113;SDS011;42994;51.606;9.988;2022-09-03T04:40:43;5.72;;;1.42;;
57113;SDS011;42994;51.606;9.988;2022-09-03T04:43:17;2.85;;;1.40;;
57113;SDS011;42994;51.606;9.988;2022-09-03T04:45:44;2.42;;;1.30;;
57113;SDS011;42994;51.606;9.988;2022-09-03T04:48:10;2.83;;;1.52;;
57113;SDS011;42994;51.606;9.988;2022-09-03T04:50:39;2.33;;;1.30;;
57113;SDS011;42994;51.606;9.988;2022-09-03T04:53:05;2.33;;;1.30;;
57113;SDS011;42994;51.606;9.988;2022-09-03T04:55:32;2.93;;;1.50;;
57113;SDS011;42994;51.606;9.988;2022-09-03T04:58:00;3.10;;;1.40;;
57113;SDS011;42994;51.606;9.988;2022-09-03T05:00:27;5.13;;;1.60;;
57113;SDS011;42994;51.606;9.988;2022-09-03T05:02:54;2.95;;;1.40;;
57113;SDS011;42994;51.606;9.988;2022-09-03T05:05:20;3.95;;;1.52;;
57113;SDS011;42994;51.606;9.988;2022-09-03T05:07:49;5.47;;;1.42;;
57113;SDS011;42994;51.606;9.988;2022-09-03T05:10:15;1.95;;;1.45;;
57113;SDS011;42994;51.606;9.988;2022-09-03T05:12:45;5.95;;;1.27;;
57113;SDS011;42994;51.606;9.988;2022-09-03T05:15:14;7.38;;;1.52;;
57113;SDS011;42994;51.606;9.988;2022-09-03T05:17:41;3.63;;;1.40;;
57113;SDS011;42994;51.606;9.988;2022-09-03T05:20:08;1.73;;;1.42;;
57113;SDS011;42994;51.606;9.988;2022-09-03T05:22:35;3.58;;;1.42;;
57113;SDS011;42994;51.606;9.988;2022-09-03T05:25:03;2.28;;;1.30;;
57113;SDS011;42994;51.606;9.988;2022-09-03T05:27:31;3.10;;;1.48;;
57113;SDS011;42994;51.606;9.988;2022-09-03T05:29:58;2.22;;;1.23;;
57113;SDS011;42994;51.606;9.988;2022-09-03T05:32:24;1.50;;;1.20;;
57113;SDS011;42994;51.606;9.988;2022-09-03T05:34:53;2.22;;;1.17;;
57113;SDS011;42994;51.606;9.988;2022-09-03T05:37:20;6.65;;;1.48;;
57113;SDS011;42994;51.606;9.988;2022-09-03T05:39:47;3.72;;;1.40;;
57113;SDS011;42994;51.606;9.988;2022-09-03T05:42:15;3.83;;;1.33;;
57113;SDS011;42994;51.606;9.988;2022-09-03T05:44:42;2.40;;;1.40;;
57113;SDS011;42994;51.606;9.988;2022-09-03T05:47:09;21.80;;;1.90;;
57113;SDS011;42994;51.606;9.988;2022-09-03T05:49:35;3.33;;;1.38;;
57113;SDS011;42994;51.606;9.988;2022-09-03T05:52:02;2.78;;;1.70;;
57113;SDS011;42994;51.606;9.988;2022-09-03T05:54:29;3.95;;;1.40;;
57113;SDS011;42994;51.606;9.988;2022-09-03T05:56:56;4.10;;;1.50;;
57113;SDS011;42994;51.606;9.988;2022-09-03T05:59:23;4.22;;;1.45;;
57113;SDS011;42994;51.606;9.988;2022-09-03T06:01:50;3.08;;;1.35;;
57113;SDS011;42994;51.606;9.988;2022-09-03T06:04:17;2.78;;;1.30;;
57113;SDS011;42994;51.606;9.988;2022-09-03T06:06:44;3.92;;;2.05;;
57113;SDS011;42994;51.606;9.988;2022-09-03T06:09:13;5.00;;;1.52;;
57113;SDS011;42994;51.606;9.988;2022-09-03T06:11:42;1.58;;;1.10;;
57113;SDS011;42994;51.606;9.988;2022-09-03T06:14:10;2.08;;;1.50;;
57113;SDS011;42994;51.606;9.988;2022-09-03T06:16:40;4.70;;;1.50;;
57113;SDS011;42994;51.606;9.988;2022-09-03T06:19:08;4.65;;;1.50;;
57113;SDS011;42994;51.606;9.988;2022-09-03T06:21:35;4.88;;;1.70;;
57113;SDS011;42994;51.606;9.988;2022-09-03T06:24:04;3.58;;;1.58;;
57113;SDS011;42994;51.606;9.988;2022-09-03T06:26:31;3.58;;;1.50;;
57113;SDS011;42994;51.606;9.988;2022-09-03T06:28:58;2.30;;;1.70;;
57113;SDS011;42994;51.606;9.988;2022-09-03T06:31:24;4.25;;;1.55;;
57113;SDS011;42994;51.606;9.988;2022-09-03T06:33:53;2.90;;;1.55;;
57113;SDS011;42994;51.606;9.988;2022-09-03T06:36:20;2.67;;;1.48;;
57113;SDS011;42994;51.606;9.988;2022-09-03T06:38:50;4.05;;;1.30;;
57113;SDS011;42994;51.606;9.988;2022-09-03T06:41:19;2.67;;;1.67;;
57113;SDS011;42994;51.606;9.988;2022-09-03T06:43:49;2.15;;;1.50;;
57113;SDS011;42994;51.606;9.988;2022-09-03T06:46:18;3.40;;;1.73;;
57113;SDS011;42994;51.606;9.988;2022-09-03T06:48:46;2.90;;;1.58;;
57113;SDS011;42994;51.606;9.988;2022-09-03T06:51:17;5.05;;;1.70;;
57113;SDS011;42994;51.606;9.988;2022-09-03T06:53:45;1.75;;;1.45;;
57113;SDS011;42994;51.606;9.988;2022-09-03T06:56:14;4.80;;;1.60;;
57113;SDS011;42994;51.606;9.988;2022-09-03T06:58:43;5.13;;;1.58;;
57113;SDS011;42994;51.606;9.988;2022-09-03T07:01:12;3.47;;;1.50;;
57113;SDS011;42994;51.606;9.988;2022-09-03T07:03:40;6.35;;;1.65;;
57113;SDS011;42994;51.606;9.988;2022-09-03T07:06:09;4.72;;;1.65;;
57113;SDS011;42994;51.606;9.988;2022-09-03T07:08:38;4.10;;;1.73;;
57113;SDS011;42994;51.606;9.988;2022-09-03T07:11:07;2.22;;;1.80;;
57113;SDS011;42994;51.606;9.988;2022-09-03T07:13:36;4.57;;;1.58;;
57113;SDS011;42994;51.606;9.988;2022-09-03T07:16:05;2.42;;;1.50;;
57113;SDS011;42994;51.606;9.988;2022-09-03T07:18:33;5.72;;;1.92;;
57113;SDS011;42994;51.606;9.988;2022-09-03T07:21:02;3.30;;;1.50;;
57113;SDS011;42994;51.606;9.988;2022-09-03T07:23:30;2.87;;;1.40;;
57113;SDS011;42994;51.606;9.988;2022-09-03T07:25:59;3.58;;;1.60;;
57113;SDS011;42994;51.606;9.988;2022-09-03T07:28:28;5.23;;;1.50;;
57113;SDS011;42994;51.606;9.988;2022-09-03T07:31:00;5.07;;;1.80;;
57113;SDS011;42994;51.606;9.988;2022-09-03T07:33:28;5.00;;;1.87;;
57113;SDS011;42994;51.606;9.988;2022-09-03T07:35:55;2.63;;;1.38;;
57113;SDS011;42994;51.606;9.988;2022-09-03T07:38:27;4.63;;;1.30;;
57113;SDS011;42994;51.606;9.988;2022-09-03T07:40:56;2.93;;;1.57;;
57113;SDS011;42994;51.606;9.988;2022-09-03T07:43:25;4.45;;;1.52;;
57113;SDS011;42994;51.606;9.988;2022-09-03T07:45:52;3.90;;;1.67;;
57113;SDS011;42994;51.606;9.988;2022-09-03T07:48:19;3.92;;;2.08;;
57113;SDS011;42994;51.606;9.988;2022-09-03T07:50:46;8.02;;;1.90;;
57113;SDS011;42994;51.606;9.988;2022-09-03T07:53:14;3.55;;;1.60;;
57113;SDS011;42994;51.606;9.988;2022-09-03T07:55:42;4.22;;;1.50;;
57113;SDS011;42994;51.606;9.988;2022-09-03T07:58:09;2.65;;;1.40;;
57113;SDS011;42994;51.606;9.988;2022-09-03T08:00:38;5.13;;;1.75;;
57113;SDS011;42994;51.606;9.988;2022-09-03T08:03:04;6.75;;;1.70;;
57113;SDS011;42994;51.606;9.988;2022-09-03T08:05:33;3.35;;;1.33;;
57113;SDS011;42994;51.606;9.988;2022-09-03T08:08:00;4.88;;;1.42;;
57113;SDS011;42994;51.606;9.988;2022-09-03T08:10:27;4.10;;;1.60;;
57113;SDS011;42994;51.606;9.988;2022-09-03T08:12:56;5.57;;;1.75;;
57113;SDS011;42994;51.606;9.988;2022-09-03T08:15:23;3.92;;;1.38;;
57113;SDS011;42994;51.606;9.988;2022-09-03T08:17:51;2.90;;;1.15;;
57113;SDS011;42994;51.606;9.988;2022-09-03T08:20:18;6.20;;;1.48;;
57113;SDS011;42994;51.606;9.988;2022-09-03T08:22:45;3.20;;;1.63;;
57113;SDS011;42994;51.606;9.988;2022-09-03T08:25:12;2.38;;;1.50;;
57113;SDS011;42994;51.606;9.988;2022-09-03T08:27:39;5.78;;;1.60;;
57113;SDS011;42994;51.606;9.988;2022-09-03T08:30:06;5.30;;;1.63;;
57113;SDS011;42994;51.606;9.988;2022-09-03T08:32:36;2.25;;;1.35;;
57113;SDS011;42994;51.606;9.988;2022-09-03T08:35:05;4.22;;;1.50;;
57113;SDS011;42994;51.606;9.988;2022-09-03T08:37:33;2.58;;;1.35;;
57113;SDS011;42994;51.606;9.988;2022-09-03T08:40:00;5.28;;;1.50;;
57113;SDS011;42994;51.606;9.988;2022-09-03T08:42:37;4.20;;;1.63;;
57113;SDS011;42994;51.606;9.988;2022-09-03T08:45:12;8.40;;;1.80;;
57113;SDS011;42994;51.606;9.988;2022-09-03T08:47:43;3.95;;;1.52;;
57113;SDS011;42994;51.606;9.988;2022-09-03T08:50:18;1.80;;;1.38;;
57113;SDS011;42994;51.606;9.988;2022-09-03T08:52:50;3.33;;;1.38;;
57113;SDS011;42994;51.606;9.988;2022-09-03T08:55:25;5.35;;;1.45;;
57113;SDS011;42994;51.606;9.988;2022-09-03T08:57:55;5.10;;;1.58;;
57113;SDS011;42994;51.606;9.988;2022-09-03T09:00:28;5.83;;;1.60;;
57113;SDS011;42994;51.606;9.988;2022-09-03T09:03:07;3.67;;;1.20;;
57113;SDS011;42994;51.606;9.988;2022-09-03T09:05:52;3.28;;;1.15;;
57113;SDS011;42994;51.606;9.988;2022-09-03T09:08:27;4.90;;;1.45;;
57113;SDS011;42994;51.606;9.988;2022-09-03T09:11:01;4.00;;;1.50;;
57113;SDS011;42994;51.606;9.988;2022-09-03T09:13:36;1.80;;;1.30;;
57113;SDS011;42994;51.606;9.988;2022-09-03T09:16:09;7.68;;;1.10;;
57113;SDS011;42994;51.606;9.988;2022-09-03T09:18:47;4.00;;;1.27;;
57113;SDS011;42994;51.606;9.988;2022-09-03T09:21:30;2.72;;;1.30;;
57113;SDS011;42994;51.606;9.988;2022-09-03T09:24:05;3.10;;;1.13;;
57113;SDS011;42994;51.606;9.988;2022-09-03T09:26:38;2.78;;;1.25;;
57113;SDS011;42994;51.606;9.988;2022-09-03T09:29:07;2.70;;;1.02;;
57113;SDS011;42994;51.606;9.988;2022-09-03T09:31:36;5.85;;;1.30;;
57113;SDS011;42994;51.606;9.988;2022-09-03T09:34:04;4.55;;;1.25;;
57113;SDS011;42994;51.606;9.988;2022-09-03T09:36:35;3.17;;;1.05;;
57113;SDS011;42994;51.606;9.988;2022-09-03T09:39:08;5.75;;;1.20;;
57113;SDS011;42994;51.606;9.988;2022-09-03T09:41:35;4.88;;;1.27;;
57113;SDS011;42994;51.606;9.988;2022-09-03T09:44:02;3.25;;;1.27;;
57113;SDS011;42994;51.606;9.988;2022-09-03T09:46:31;2.67;;;1.15;;
57113;SDS011;42994;51.606;9.988;2022-09-03T09:49:01;1.17;;;1.00;;
57113;SDS011;42994;51.606;9.988;2022-09-03T09:51:28;2.55;;;1.05;;
57113;SDS011;42994;51.606;9.988;2022-09-03T09:54:02;5.07;;;1.10;;
57113;SDS011;42994;51.606;9.988;2022-09-03T09:56:37;2.90;;;1.08;;
57113;SDS011;42994;51.606;9.988;2022-09-03T09:59:04;2.42;;;0.85;;
57113;SDS011;42994;51.606;9.988;2022-09-03T10:01:32;8.40;;;1.40;;
57113;SDS011;42994;51.606;9.988;2022-09-03T10:04:07;2.15;;;1.10;;
